sensor_id;sensor_type;location;lat;lon;timestamp;temperature;humidity
35804;DHT22;21924;51.934;7.414;2024-01-25T00:02:09;7.90;99.90
35804;DHT22;21924;51.934;7.414;2024-01-25T00:04:53;7.90;99.90
35804;DHT22;21924;51.934;7.414;2024-01-25T00:07:48;7.80;99.90
35804;DHT22;21924;51.934;7.414;2024-01-25T00:10:32;7.80;99.90
35804;DHT22;21924;51.934;7.414;2024-01-25T00:13:17;7.80;99.90
35804;DHT22;21924;51.934;7.414;2024-01-25T00:16:01;7.70;99.90
35804;DHT22;21924;51.934;7.414;2024-01-25T00:18:45;7.70;99.90
35804;DHT22;21924;51.934;7.414;2024-01-25T00:21:30;7.70;99.90
35804;DHT22;21924;51.934;7.414;2024-01-25T00:24:14;7.70;99.90
35804;DHT22;21924;51.934;7.414;2024-01-25T00:26:59;7.70;99.90
35804;DHT22;21924;51.934;7.414;2024-01-25T00:29:43;7.60;99.90
35804;DHT22;21924;51.934;7.414;2024-01-25T00:32:27;7.60;99.90
35804;DHT22;21924;51.934;7.414;2024-01-25T00:35:12;7.60;99.90
35804;DHT22;21924;51.934;7.414;2024-01-25T00:37:58;7.60;99.90
35804;DHT22;21924;51.934;7.414;2024-01-25T00:40:42;7.60;99.90
35804;DHT22;21924;51.934;7.414;2024-01-25T00:43:27;7.60;99.90
35804;DHT22;21924;51.934;7.414;2024-01-25T00:46:12;7.60;99.90
35804;DHT22;21924;51.934;7.414;2024-01-25T00:48:56;7.50;99.90
35804;DHT22;21924;51.934;7.414;2024-01-25T00:51:46;7.60;99.90
35804;DHT22;21924;51.934;7.414;2024-01-25T00:54:31;7.60;99.90
35804;DHT22;21924;51.934;7.414;2024-01-25T00:57:15;7.60;99.90
35804;DHT22;21924;51.934;7.414;2024-01-25T01:00:00;7.60;99.90
35804;DHT22;21924;51.934;7.414;2024-01-25T01:02:45;7.60;99.90
35804;DHT22;21924;51.934;7.414;2024-01-25T01:05:30;7.60;99.90
35804;DHT22;21924;51.934;7.414;2024-01-25T01:08:14;7.60;99.90
35804;DHT22;21924;51.934;7.414;2024-01-25T01:10:58;7.60;99.90
35804;DHT22;21924;51.934;7.414;2024-01-25T01:13:43;7.60;99.90
35804;DHT22;21924;51.934;7.414;2024-01-25T01:16:27;7.60;99.90
35804;DHT22;21924;51.934;7.414;2024-01-25T01:19:14;7.60;99.90
35804;DHT22;21924;51.934;7.414;2024-01-25T01:21:59;7.50;99.90
35804;DHT22;21924;51.934;7.414;2024-01-25T01:24:45;7.50;99.90
35804;DHT22;21924;51.934;7.414;2024-01-25T01:27:30;7.30;99.90
35804;DHT22;21924;51.934;7.414;2024-01-25T01:30:14;7.40;99.90
35804;DHT22;21924;51.934;7.414;2024-01-25T01:32:58;7.40;99.90
35804;DHT22;21924;51.934;7.414;2024-01-25T01:35:42;7.30;99.90
35804;DHT22;21924;51.934;7.414;2024-01-25T01:38:26;7.20;99.90
35804;DHT22;21924;51.934;7.414;2024-01-25T01:41:11;7.20;99.90
35804;DHT22;21924;51.934;7.414;2024-01-25T01:43:58;7.20;99.90
35804;DHT22;21924;51.934;7.414;2024-01-25T01:46:42;7.20;99.90
35804;DHT22;21924;51.934;7.414;2024-01-25T01:49:27;7.10;99.90
35804;DHT22;21924;51.934;7.414;2024-01-25T01:52:12;7.00;99.90
35804;DHT22;21924;51.934;7.414;2024-01-25T01:54:56;7.00;99.90
35804;DHT22;21924;51.934;7.414;2024-01-25T01:57:41;6.90;99.90
35804;DHT22;21924;51.934;7.414;2024-01-25T02:00:26;6.90;99.90
35804;DHT22;21924;51.934;7.414;2024-01-25T02:03:12;6.80;99.90
35804;DHT22;21924;51.934;7.414;2024-01-25T02:05:56;6.80;99.90
35804;DHT22;21924;51.934;7.414;2024-01-25T02:08:47;6.70;99.90
35804;DHT22;21924;51.934;7.414;2024-01-25T02:11:32;6.60;99.90
35804;DHT22;21924;51.934;7.414;2024-01-25T02:14:16;6.60;99.90
35804;DHT22;21924;51.934;7.414;2024-01-25T02:17:01;6.50;99.90
35804;DHT22;21924;51.934;7.414;2024-01-25T02:19:46;6.50;99.90
35804;DHT22;21924;51.934;7.414;2024-01-25T02:22:30;6.50;99.90
35804;DHT22;21924;51.934;7.414;2024-01-25T02:25:15;6.50;99.90
35804;DHT22;21924;51.934;7.414;2024-01-25T02:27:59;6.40;99.90
35804;DHT22;21924;51.934;7.414;2024-01-25T02:30:43;6.30;99.90
35804;DHT22;21924;51.934;7.414;2024-01-25T02:33:27;6.20;99.90
35804;DHT22;21924;51.934;7.414;2024-01-25T02:36:11;6.20;99.90
35804;DHT22;21924;51.934;7.414;2024-01-25T02:38:55;6.10;99.90
35804;DHT22;21924;51.934;7.414;2024-01-25T02:41:39;6.00;99.90
35804;DHT22;21924;51.934;7.414;2024-01-25T02:44:23;6.00;99.90
35804;DHT22;21924;51.934;7.414;2024-01-25T02:47:08;6.00;99.90
35804;DHT22;21924;51.934;7.414;2024-01-25T02:49:52;5.90;99.90
35804;DHT22;21924;51.934;7.414;2024-01-25T02:52:36;6.00;99.90
35804;DHT22;21924;51.934;7.414;2024-01-25T02:55:20;5.90;99.90
35804;DHT22;21924;51.934;7.414;2024-01-25T02:58:04;5.80;99.90
35804;DHT22;21924;51.934;7.414;2024-01-25T03:00:48;5.80;99.90
35804;DHT22;21924;51.934;7.414;2024-01-25T03:03:32;5.70;99.90
35804;DHT22;21924;51.934;7.414;2024-01-25T03:06:16;5.70;99.90
35804;DHT22;21924;51.934;7.414;2024-01-25T03:09:00;5.50;99.90
35804;DHT22;21924;51.934;7.414;2024-01-25T03:11:44;5.60;99.90
35804;DHT22;21924;51.934;7.414;2024-01-25T03:14:28;5.50;99.90
35804;DHT22;21924;51.934;7.414;2024-01-25T03:17:13;5.50;99.90
35804;DHT22;21924;51.934;7.414;2024-01-25T03:19:57;5.50;99.90
35804;DHT22;21924;51.934;7.414;2024-01-25T03:22:41;5.40;99.90
35804;DHT22;21924;51.934;7.414;2024-01-25T03:25:25;5.30;99.90
35804;DHT22;21924;51.934;7.414;2024-01-25T03:28:09;5.30;99.90
35804;DHT22;21924;51.934;7.414;2024-01-25T03:30:55;5.20;99.90
35804;DHT22;21924;51.934;7.414;2024-01-25T03:33:39;5.20;99.90
35804;DHT22;21924;51.934;7.414;2024-01-25T03:36:23;5.20;99.90
35804;DHT22;21924;51.934;7.414;2024-01-25T03:39:07;5.20;99.90
35804;DHT22;21924;51.934;7.414;2024-01-25T03:41:52;5.20;99.90
35804;DHT22;21924;51.934;7.414;2024-01-25T03:44:36;5.20;99.90
35804;DHT22;21924;51.934;7.414;2024-01-25T03:47:20;5.20;99.90
35804;DHT22;21924;51.934;7.414;2024-01-25T03:50:05;5.10;99.90
35804;DHT22;21924;51.934;7.414;2024-01-25T03:52:49;5.10;99.90
35804;DHT22;21924;51.934;7.414;2024-01-25T03:55:33;5.10;99.90
35804;DHT22;21924;51.934;7.414;2024-01-25T03:58:18;5.10;99.90
35804;DHT22;21924;51.934;7.414;2024-01-25T04:01:02;5.00;99.90
35804;DHT22;21924;51.934;7.414;2024-01-25T04:03:47;5.00;99.90
35804;DHT22;21924;51.934;7.414;2024-01-25T04:06:31;4.90;99.90
35804;DHT22;21924;51.934;7.414;2024-01-25T04:09:15;5.00;99.90
35804;DHT22;21924;51.934;7.414;2024-01-25T04:11:59;4.90;99.90
35804;DHT22;21924;51.934;7.414;2024-01-25T04:14:44;4.90;99.90
35804;DHT22;21924;51.934;7.414;2024-01-25T04:17:28;4.90;99.90
35804;DHT22;21924;51.934;7.414;2024-01-25T04:20:12;4.90;99.90
35804;DHT22;21924;51.934;7.414;2024-01-25T04:22:57;4.90;99.90
35804;DHT22;21924;51.934;7.414;2024-01-25T04:25:41;4.80;99.90
35804;DHT22;21924;51.934;7.414;2024-01-25T04:28:25;4.80;99.90
35804;DHT22;21924;51.934;7.414;2024-01-25T04:31:09;4.80;99.90
35804;DHT22;21924;51.934;7.414;2024-01-25T04:33:53;4.80;99.90
35804;DHT22;21924;51.934;7.414;2024-01-25T04:36:37;4.80;99.90
35804;DHT22;21924;51.934;7.414;2024-01-25T04:39:21;4.70;99.90
35804;DHT22;21924;51.934;7.414;2024-01-25T04:42:06;4.60;99.90
35804;DHT22;21924;51.934;7.414;2024-01-25T04:44:50;4.70;99.90
35804;DHT22;21924;51.934;7.414;2024-01-25T04:47:34;4.60;99.90
35804;DHT22;21924;51.934;7.414;2024-01-25T04:50:18;4.60;99.90
35804;DHT22;21924;51.934;7.414;2024-01-25T04:53:02;4.50;99.90
35804;DHT22;21924;51.934;7.414;2024-01-25T04:55:46;4.50;99.90
35804;DHT22;21924;51.934;7.414;2024-01-25T04:58:30;4.40;99.90
35804;DHT22;21924;51.934;7.414;2024-01-25T05:01:15;4.40;99.90
35804;DHT22;21924;51.934;7.414;2024-01-25T05:03:59;4.40;99.90
35804;DHT22;21924;51.934;7.414;2024-01-25T05:06:44;4.30;99.90
35804;DHT22;21924;51.934;7.414;2024-01-25T05:09:28;4.30;99.90
35804;DHT22;21924;51.934;7.414;2024-01-25T05:12:12;4.10;99.90
35804;DHT22;21924;51.934;7.414;2024-01-25T05:14:57;4.10;99.90
35804;DHT22;21924;51.934;7.414;2024-01-25T05:17:42;4.00;99.90
35804;DHT22;21924;51.934;7.414;2024-01-25T05:20:26;3.90;99.90
35804;DHT22;21924;51.934;7.414;2024-01-25T05:23:16;3.90;99.90
35804;DHT22;21924;51.934;7.414;2024-01-25T05:26:01;3.90;99.90
35804;DHT22;21924;51.934;7.414;2024-01-25T05:28:45;3.80;99.90
35804;DHT22;21924;51.934;7.414;2024-01-25T05:31:29;3.80;99.90
35804;DHT22;21924;51.934;7.414;2024-01-25T05:34:14;3.70;99.90
35804;DHT22;21924;51.934;7.414;2024-01-25T05:36:58;3.60;99.90
35804;DHT22;21924;51.934;7.414;2024-01-25T05:39:42;3.60;99.90
35804;DHT22;21924;51.934;7.414;2024-01-25T05:42:26;3.50;99.90
35804;DHT22;21924;51.934;7.414;2024-01-25T05:45:10;3.50;99.90
35804;DHT22;21924;51.934;7.414;2024-01-25T05:47:54;3.40;99.90
35804;DHT22;21924;51.934;7.414;2024-01-25T05:50:38;3.40;99.90
35804;DHT22;21924;51.934;7.414;2024-01-25T05:53:22;3.30;99.90
35804;DHT22;21924;51.934;7.414;2024-01-25T05:56:07;3.30;99.90
35804;DHT22;21924;51.934;7.414;2024-01-25T05:58:51;3.20;99.90
35804;DHT22;21924;51.934;7.414;2024-01-25T06:01:35;3.20;99.90
35804;DHT22;21924;51.934;7.414;2024-01-25T06:04:20;3.10;99.90
35804;DHT22;21924;51.934;7.414;2024-01-25T06:07:04;3.10;99.90
35804;DHT22;21924;51.934;7.414;2024-01-25T06:09:48;3.10;99.90
35804;DHT22;21924;51.934;7.414;2024-01-25T06:12:33;3.00;99.90
35804;DHT22;21924;51.934;7.414;2024-01-25T06:15:17;3.10;99.90
35804;DHT22;21924;51.934;7.414;2024-01-25T06:18:01;3.10;99.90
35804;DHT22;21924;51.934;7.414;2024-01-25T06:20:45;3.20;99.90
35804;DHT22;21924;51.934;7.414;2024-01-25T06:23:30;3.20;99.90
35804;DHT22;21924;51.934;7.414;2024-01-25T06:26:14;3.20;99.90
35804;DHT22;21924;51.934;7.414;2024-01-25T06:28:58;3.20;99.90
35804;DHT22;21924;51.934;7.414;2024-01-25T06:31:43;3.20;99.90
35804;DHT22;21924;51.934;7.414;2024-01-25T06:34:28;3.10;99.90
35804;DHT22;21924;51.934;7.414;2024-01-25T06:37:12;3.30;99.90
35804;DHT22;21924;51.934;7.414;2024-01-25T06:39:59;3.20;99.90
35804;DHT22;21924;51.934;7.414;2024-01-25T06:42:43;3.10;99.90
35804;DHT22;21924;51.934;7.414;2024-01-25T06:45:28;3.10;99.90
35804;DHT22;21924;51.934;7.414;2024-01-25T06:48:13;2.90;99.90
35804;DHT22;21924;51.934;7.414;2024-01-25T06:50:57;2.90;99.90
35804;DHT22;21924;51.934;7.414;2024-01-25T06:53:41;2.80;99.90
35804;DHT22;21924;51.934;7.414;2024-01-25T06:56:26;2.80;99.90
35804;DHT22;21924;51.934;7.414;2024-01-25T06:59:10;2.70;99.90
35804;DHT22;21924;51.934;7.414;2024-01-25T07:01:54;2.70;99.90
35804;DHT22;21924;51.934;7.414;2024-01-25T07:04:38;2.60;99.90
35804;DHT22;21924;51.934;7.414;2024-01-25T07:07:24;2.60;99.90
35804;DHT22;21924;51.934;7.414;2024-01-25T07:10:08;2.80;99.90
35804;DHT22;21924;51.934;7.414;2024-01-25T07:12:52;2.80;99.90
35804;DHT22;21924;51.934;7.414;2024-01-25T07:15:38;2.70;99.90
35804;DHT22;21924;51.934;7.414;2024-01-25T07:18:22;2.60;99.90
35804;DHT22;21924;51.934;7.414;2024-01-25T07:21:08;2.60;99.90
35804;DHT22;21924;51.934;7.414;2024-01-25T07:23:52;2.60;99.90
35804;DHT22;21924;51.934;7.414;2024-01-25T07:26:36;2.70;99.90
35804;DHT22;21924;51.934;7.414;2024-01-25T07:29:20;2.70;99.90
35804;DHT22;21924;51.934;7.414;2024-01-25T07:32:05;2.80;99.90
35804;DHT22;21924;51.934;7.414;2024-01-25T07:34:50;2.70;99.90
35804;DHT22;21924;51.934;7.414;2024-01-25T07:37:34;2.80;99.90
35804;DHT22;21924;51.934;7.414;2024-01-25T07:40:18;2.80;99.90
35804;DHT22;21924;51.934;7.414;2024-01-25T07:43:02;2.80;99.90
35804;DHT22;21924;51.934;7.414;2024-01-25T07:45:47;2.80;99.90
35804;DHT22;21924;51.934;7.414;2024-01-25T07:48:31;2.80;99.90
35804;DHT22;21924;51.934;7.414;2024-01-25T07:51:15;2.90;99.90
35804;DHT22;21924;51.934;7.414;2024-01-25T07:53:59;2.90;99.90
35804;DHT22;21924;51.934;7.414;2024-01-25T07:56:44;3.00;99.90
35804;DHT22;21924;51.934;7.414;2024-01-25T07:59:28;3.10;99.90
35804;DHT22;21924;51.934;7.414;2024-01-25T08:02:12;3.10;99.90
35804;DHT22;21924;51.934;7.414;2024-01-25T08:04:56;3.20;99.90
35804;DHT22;21924;51.934;7.414;2024-01-25T08:07:45;3.20;99.90
35804;DHT22;21924;51.934;7.414;2024-01-25T08:10:29;3.30;99.90
35804;DHT22;21924;51.934;7.414;2024-01-25T08:13:13;3.40;99.90
35804;DHT22;21924;51.934;7.414;2024-01-25T08:15:57;3.40;99.90
35804;DHT22;21924;51.934;7.414;2024-01-25T08:18:41;3.50;99.90
35804;DHT22;21924;51.934;7.414;2024-01-25T08:21:28;3.60;99.90
35804;DHT22;21924;51.934;7.414;2024-01-25T08:24:12;3.70;99.90
35804;DHT22;21924;51.934;7.414;2024-01-25T08:26:56;3.80;99.90
35804;DHT22;21924;51.934;7.414;2024-01-25T08:29:40;3.90;99.90
35804;DHT22;21924;51.934;7.414;2024-01-25T08:32:25;3.90;99.90
35804;DHT22;21924;51.934;7.414;2024-01-25T08:35:09;4.00;99.90
35804;DHT22;21924;51.934;7.414;2024-01-25T08:37:54;4.10;99.90
35804;DHT22;21924;51.934;7.414;2024-01-25T08:40:38;4.10;99.90
35804;DHT22;21924;51.934;7.414;2024-01-25T08:43:22;4.20;99.90
35804;DHT22;21924;51.934;7.414;2024-01-25T08:46:06;4.20;99.90
35804;DHT22;21924;51.934;7.414;2024-01-25T08:48:51;4.30;99.90
35804;DHT22;21924;51.934;7.414;2024-01-25T08:51:35;4.30;99.90
35804;DHT22;21924;51.934;7.414;2024-01-25T08:54:19;4.40;99.90
35804;DHT22;21924;51.934;7.414;2024-01-25T08:57:04;4.40;99.90
35804;DHT22;21924;51.934;7.414;2024-01-25T08:59:49;4.50;99.90
35804;DHT22;21924;51.934;7.414;2024-01-25T09:02:33;4.60;99.90
35804;DHT22;21924;51.934;7.414;2024-01-25T09:05:17;4.60;99.90
35804;DHT22;21924;51.934;7.414;2024-01-25T09:08:01;4.70;99.90
35804;DHT22;21924;51.934;7.414;2024-01-25T09:10:45;4.70;99.90
35804;DHT22;21924;51.934;7.414;2024-01-25T09:13:29;4.80;99.90
35804;DHT22;21924;51.934;7.414;2024-01-25T09:16:15;4.90;99.90
35804;DHT22;21924;51.934;7.414;2024-01-25T09:18:59;4.90;99.90
35804;DHT22;21924;51.934;7.414;2024-01-25T09:21:43;5.00;99.90
35804;DHT22;21924;51.934;7.414;2024-01-25T09:24:27;5.00;99.90
35804;DHT22;21924;51.934;7.414;2024-01-25T09:27:14;5.10;99.90
35804;DHT22;21924;51.934;7.414;2024-01-25T09:30:01;5.20;99.90
35804;DHT22;21924;51.934;7.414;2024-01-25T09:32:46;5.20;99.90
35804;DHT22;21924;51.934;7.414;2024-01-25T09:35:30;5.20;99.90
35804;DHT22;21924;51.934;7.414;2024-01-25T09:38:15;5.30;99.90
35804;DHT22;21924;51.934;7.414;2024-01-25T09:40:59;5.40;99.90
35804;DHT22;21924;51.934;7.414;2024-01-25T09:43:45;5.40;99.90
35804;DHT22;21924;51.934;7.414;2024-01-25T09:46:30;5.50;99.90
35804;DHT22;21924;51.934;7.414;2024-01-25T09:49:15;5.60;99.90
35804;DHT22;21924;51.934;7.414;2024-01-25T09:52:01;5.60;99.90
35804;DHT22;21924;51.934;7.414;2024-01-25T09:54:47;5.60;99.90
35804;DHT22;21924;51.934;7.414;2024-01-25T09:57:32;5.70;99.90
35804;DHT22;21924;51.934;7.414;2024-01-25T10:00:17;5.70;99.90
35804;DHT22;21924;51.934;7.414;2024-01-25T10:03:02;5.70;99.90
35804;DHT22;21924;51.934;7.414;2024-01-25T10:05:46;5.70;99.90
35804;DHT22;21924;51.934;7.414;2024-01-25T10:08:30;5.80;99.90
35804;DHT22;21924;51.934;7.414;2024-01-25T10:11:14;5.90;99.90
35804;DHT22;21924;51.934;7.414;2024-01-25T10:14:00;6.00;99.90
35804;DHT22;21924;51.934;7.414;2024-01-25T10:16:45;6.10;99.90
35804;DHT22;21924;51.934;7.414;2024-01-25T10:19:30;6.10;99.90
35804;DHT22;21924;51.934;7.414;2024-01-25T10:22:14;6.10;99.90
35804;DHT22;21924;51.934;7.414;2024-01-25T10:24:59;6.20;99.90
35804;DHT22;21924;51.934;7.414;2024-01-25T10:27:43;6.30;99.90
35804;DHT22;21924;51.934;7.414;2024-01-25T10:30:27;6.30;99.90
35804;DHT22;21924;51.934;7.414;2024-01-25T10:33:15;6.40;99.90
35804;DHT22;21924;51.934;7.414;2024-01-25T10:36:01;6.40;99.90
35804;DHT22;21924;51.934;7.414;2024-01-25T10:38:49;6.60;99.90
35804;DHT22;21924;51.934;7.414;2024-01-25T10:41:36;6.70;99.90
35804;DHT22;21924;51.934;7.414;2024-01-25T10:44:21;6.70;99.90
35804;DHT22;21924;51.934;7.414;2024-01-25T10:47:06;6.80;99.90
35804;DHT22;21924;51.934;7.414;2024-01-25T10:49:51;6.70;99.90
35804;DHT22;21924;51.934;7.414;2024-01-25T10:52:37;6.80;99.90
35804;DHT22;21924;51.934;7.414;2024-01-25T10:55:23;6.70;99.90
35804;DHT22;21924;51.934;7.414;2024-01-25T10:58:07;6.70;99.90
35804;DHT22;21924;51.934;7.414;2024-01-25T11:00:55;6.60;99.90
35804;DHT22;21924;51.934;7.414;2024-01-25T11:03:40;6.70;99.90
35804;DHT22;21924;51.934;7.414;2024-01-25T11:06:27;6.90;99.90
35804;DHT22;21924;51.934;7.414;2024-01-25T11:09:20;7.10;99.90
35804;DHT22;21924;51.934;7.414;2024-01-25T11:12:12;7.10;99.90
35804;DHT22;21924;51.934;7.414;2024-01-25T11:14:57;7.30;99.90
35804;DHT22;21924;51.934;7.414;2024-01-25T11:17:41;7.30;99.90
35804;DHT22;21924;51.934;7.414;2024-01-25T11:20:27;7.30;99.90
35804;DHT22;21924;51.934;7.414;2024-01-25T11:23:15;7.40;99.90
35804;DHT22;21924;51.934;7.414;2024-01-25T11:26:00;7.50;99.90
35804;DHT22;21924;51.934;7.414;2024-01-25T11:28:44;7.40;99.90
35804;DHT22;21924;51.934;7.414;2024-01-25T11:31:28;7.30;99.90
35804;DHT22;21924;51.934;7.414;2024-01-25T11:34:13;7.30;99.90
35804;DHT22;21924;51.934;7.414;2024-01-25T11:36:59;7.30;99.90
35804;DHT22;21924;51.934;7.414;2024-01-25T11:39:43;7.40;99.90
35804;DHT22;21924;51.934;7.414;2024-01-25T11:42:28;7.40;99.90
35804;DHT22;21924;51.934;7.414;2024-01-25T11:45:15;7.50;99.90
35804;DHT22;21924;51.934;7.414;2024-01-25T11:47:59;7.60;99.90
35804;DHT22;21924;51.934;7.414;2024-01-25T11:50:43;7.80;99.90
35804;DHT22;21924;51.934;7.414;2024-01-25T11:53:28;8.00;99.90
35804;DHT22;21924;51.934;7.414;2024-01-25T11:56:20;8.20;99.90
35804;DHT22;21924;51.934;7.414;2024-01-25T11:59:05;8.20;99.90
35804;DHT22;21924;51.934;7.414;2024-01-25T12:01:49;8.30;99.90
35804;DHT22;21924;51.934;7.414;2024-01-25T12:04:33;8.30;99.90
35804;DHT22;21924;51.934;7.414;2024-01-25T12:07:18;8.30;99.90
35804;DHT22;21924;51.934;7.414;2024-01-25T12:10:04;8.20;99.90
35804;DHT22;21924;51.934;7.414;2024-01-25T12:12:49;8.10;99.90
35804;DHT22;21924;51.934;7.414;2024-01-25T12:15:33;8.20;99.90
35804;DHT22;21924;51.934;7.414;2024-01-25T12:18:17;8.20;99.90
35804;DHT22;21924;51.934;7.414;2024-01-25T12:21:03;8.20;99.90
35804;DHT22;21924;51.934;7.414;2024-01-25T12:23:48;8.10;99.90
35804;DHT22;21924;51.934;7.414;2024-01-25T12:26:36;8.00;99.90
35804;DHT22;21924;51.934;7.414;2024-01-25T12:29:21;8.00;99.90
35804;DHT22;21924;51.934;7.414;2024-01-25T12:32:05;8.00;99.90
35804;DHT22;21924;51.934;7.414;2024-01-25T12:34:56;8.00;99.90
35804;DHT22;21924;51.934;7.414;2024-01-25T12:37:40;7.90;99.90
35804;DHT22;21924;51.934;7.414;2024-01-25T12:40:24;8.00;99.90
35804;DHT22;21924;51.934;7.414;2024-01-25T12:43:09;8.00;99.90
35804;DHT22;21924;51.934;7.414;2024-01-25T12:45:53;8.00;99.90
35804;DHT22;21924;51.934;7.414;2024-01-25T12:48:37;8.10;99.90
35804;DHT22;21924;51.934;7.414;2024-01-25T12:51:21;8.10;99.90
35804;DHT22;21924;51.934;7.414;2024-01-25T12:54:06;8.20;99.90
35804;DHT22;21924;51.934;7.414;2024-01-25T12:56:51;8.30;99.90
35804;DHT22;21924;51.934;7.414;2024-01-25T12:59:36;8.50;99.90
35804;DHT22;21924;51.934;7.414;2024-01-25T13:02:20;8.60;99.90
35804;DHT22;21924;51.934;7.414;2024-01-25T13:05:05;8.60;99.90
35804;DHT22;21924;51.934;7.414;2024-01-25T13:07:50;8.70;99.90
35804;DHT22;21924;51.934;7.414;2024-01-25T13:10:34;8.60;99.90
35804;DHT22;21924;51.934;7.414;2024-01-25T13:13:18;8.50;99.90
35804;DHT22;21924;51.934;7.414;2024-01-25T13:16:02;8.40;99.90
35804;DHT22;21924;51.934;7.414;2024-01-25T13:18:47;8.30;99.90
35804;DHT22;21924;51.934;7.414;2024-01-25T13:21:32;8.30;99.90
35804;DHT22;21924;51.934;7.414;2024-01-25T13:24:17;8.30;99.90
35804;DHT22;21924;51.934;7.414;2024-01-25T13:27:02;8.30;99.90
35804;DHT22;21924;51.934;7.414;2024-01-25T13:29:47;8.20;99.90
35804;DHT22;21924;51.934;7.414;2024-01-25T13:32:31;8.20;99.90
35804;DHT22;21924;51.934;7.414;2024-01-25T13:35:16;8.10;99.90
35804;DHT22;21924;51.934;7.414;2024-01-25T13:38:00;8.00;99.90
35804;DHT22;21924;51.934;7.414;2024-01-25T13:40:45;8.00;99.90
35804;DHT22;21924;51.934;7.414;2024-01-25T13:43:29;8.00;99.90
35804;DHT22;21924;51.934;7.414;2024-01-25T13:46:13;8.00;99.90
35804;DHT22;21924;51.934;7.414;2024-01-25T13:48:57;8.00;99.90
35804;DHT22;21924;51.934;7.414;2024-01-25T13:51:43;8.00;99.90
35804;DHT22;21924;51.934;7.414;2024-01-25T13:54:28;8.10;99.90
35804;DHT22;21924;51.934;7.414;2024-01-25T13:57:13;8.20;99.90
35804;DHT22;21924;51.934;7.414;2024-01-25T14:00:00;8.30;99.90
35804;DHT22;21924;51.934;7.414;2024-01-25T14:02:44;8.30;99.90
35804;DHT22;21924;51.934;7.414;2024-01-25T14:27:42;8.80;99.90
35804;DHT22;21924;51.934;7.414;2024-01-25T14:34:44;8.80;99.90
35804;DHT22;21924;51.934;7.414;2024-01-25T14:44:51;8.30;99.90
35804;DHT22;21924;51.934;7.414;2024-01-25T14:51:44;8.10;99.90
35804;DHT22;21924;51.934;7.414;2024-01-25T15:05:47;7.80;99.90
35804;DHT22;21924;51.934;7.414;2024-01-25T15:45:52;7.40;99.90
35804;DHT22;21924;51.934;7.414;2024-01-25T16:32:55;7.10;99.90
35804;DHT22;21924;51.934;7.414;2024-01-25T19:11:10;6.90;99.90
35804;DHT22;21924;51.934;7.414;2024-01-25T22:00:45;7.10;99.90
35804;DHT22;21924;51.934;7.414;2024-01-25T22:40:31;7.30;99.90
35804;DHT22;21924;51.934;7.414;2024-01-25T22:43:25;7.40;99.90
35804;DHT22;21924;51.934;7.414;2024-01-25T23:00:39;7.50;99.90
35804;DHT22;21924;51.934;7.414;2024-01-25T23:03:33;7.50;99.90
35804;DHT22;21924;51.934;7.414;2024-01-25T23:32:36;7.70;99.90
35804;DHT22;21924;51.934;7.414;2024-01-25T23:38:49;7.80;99.90
35804;DHT22;21924;51.934;7.414;2024-01-25T23:41:33;7.70;99.90
35804;DHT22;21924;51.934;7.414;2024-01-25T23:44:17;7.80;99.90
35804;DHT22;21924;51.934;7.414;2024-01-25T23:47:01;7.80;99.90
35804;DHT22;21924;51.934;7.414;2024-01-25T23:49:45;7.80;99.90
35804;DHT22;21924;51.934;7.414;2024-01-25T23:52:29;7.90;99.90
35804;DHT22;21924;51.934;7.414;2024-01-25T23:55:13;7.90;99.90
35804;DHT22;21924;51.934;7.414;2024-01-25T23:57:57;7.90;99.90
